createdAt,value
2022-08-19T00:02:00.750Z,-73
2022-08-19T00:07:05.078Z,-73
2022-08-19T00:12:07.316Z,-72
2022-08-19T00:17:10.070Z,-72
2022-08-19T00:22:12.104Z,-72
2022-08-19T00:27:25.698Z,-72
2022-08-19T00:32:29.148Z,-73
2022-08-19T00:37:34.068Z,-71
2022-08-19T00:42:36.179Z,-73
2022-08-19T00:47:38.209Z,-72
2022-08-19T00:52:46.594Z,-73
2022-08-19T00:57:55.381Z,-71
2022-08-19T01:02:57.889Z,-73
2022-08-19T01:08:02.633Z,-72
2022-08-19T01:13:05.815Z,-72
2022-08-19T01:18:10.966Z,-72
2022-08-19T01:23:13.530Z,-71
2022-08-19T01:28:18.820Z,-72
2022-08-19T01:33:25.204Z,-72
2022-08-19T01:38:29.435Z,-71
2022-08-19T01:43:31.493Z,-72
2022-08-19T01:48:42.149Z,-73
2022-08-19T01:53:46.606Z,-72
2022-08-19T01:58:57.384Z,-72
2022-08-19T02:04:01.890Z,-72
2022-08-19T02:09:05.591Z,-72
2022-08-19T02:14:08.840Z,-73
2022-08-19T02:19:11.397Z,-72
2022-08-19T02:24:13.450Z,-72
2022-08-19T02:29:15.484Z,-72
2022-08-19T02:34:18.416Z,-73
2022-08-19T02:39:20.632Z,-72
2022-08-19T02:44:31.390Z,-73
2022-08-19T02:49:34.702Z,-73
2022-08-19T02:54:37.542Z,-72
2022-08-19T02:59:40.823Z,-73
2022-08-19T03:04:43.245Z,-73
2022-08-19T03:09:45.774Z,-72
2022-08-19T03:14:47.851Z,-72
2022-08-19T03:19:49.901Z,-72
2022-08-19T03:24:52.108Z,-72
2022-08-19T03:29:54.146Z,-72
2022-08-19T03:34:56.588Z,-72
2022-08-19T03:39:58.725Z,-71
2022-08-19T03:45:01.126Z,-72
2022-08-19T03:50:03.450Z,-72
2022-08-19T03:55:06.045Z,-71
2022-08-19T04:00:12.886Z,-71
2022-08-19T04:05:16.118Z,-73
2022-08-19T04:10:18.476Z,-72
2022-08-19T04:15:21.844Z,-72
2022-08-19T04:20:23.932Z,-73
2022-08-19T04:25:25.976Z,-74
2022-08-19T04:30:27.981Z,-72
2022-08-19T04:35:42.472Z,-72
2022-08-19T04:41:07.967Z,-73
2022-08-19T04:46:12.075Z,-73
2022-08-19T04:51:34.952Z,-72
2022-08-19T04:56:37.133Z,-74
2022-08-19T05:01:39.206Z,-80
2022-08-19T05:06:41.236Z,-78
2022-08-19T05:11:43.886Z,-77
2022-08-19T05:16:46.005Z,-80
2022-08-19T05:22:06.618Z,-82
2022-08-19T05:27:08.757Z,-89
2022-08-19T05:32:11.513Z,-86
2022-08-19T05:37:13.897Z,-75
2022-08-19T05:42:16.581Z,-80
2022-08-19T05:47:20.988Z,-80
2022-08-19T05:52:26.055Z,-81
2022-08-19T05:57:30.146Z,-84
2022-08-19T06:02:32.396Z,-85
2022-08-19T06:12:37.404Z,-88
2022-08-19T06:17:40.264Z,-86
2022-08-19T06:22:42.604Z,-83
2022-08-19T06:28:11.577Z,-86
2022-08-19T06:33:07.535Z,-81
2022-08-19T06:38:10.583Z,-72
2022-08-19T06:43:13.045Z,-76
2022-08-19T06:48:16.292Z,-76
2022-08-19T06:53:20.347Z,-75
2022-08-19T06:58:23.617Z,-78
2022-08-19T07:03:25.632Z,-73
2022-08-19T07:08:29.248Z,-76
2022-08-19T07:13:33.618Z,-76
2022-08-19T07:18:36.177Z,-73
2022-08-19T07:28:51.400Z,-78
2022-08-19T07:33:57.475Z,-78
2022-08-19T07:39:02.858Z,-74
2022-08-19T07:44:06.349Z,-74
2022-08-19T07:49:14.605Z,-77
2022-08-19T07:54:17.164Z,-84
2022-08-19T07:59:20.646Z,-77
2022-08-19T08:04:41.631Z,-83
2022-08-19T08:09:44.872Z,-85
2022-08-19T08:14:56.145Z,-81
2022-08-19T08:19:58.593Z,-85
2022-08-19T08:25:27.676Z,-72
2022-08-19T08:30:36.914Z,-74
2022-08-19T08:35:42.781Z,-75
2022-08-19T08:40:52.412Z,-83
2022-08-19T08:46:08.033Z,-80
2022-08-19T08:51:20.285Z,-80
2022-08-19T08:56:23.564Z,-81
2022-08-19T09:01:30.309Z,-84
2022-08-19T09:06:45.010Z,-80
2022-08-19T09:12:18.896Z,-81
2022-08-19T09:17:36.284Z,-80
2022-08-19T09:22:40.076Z,-78
2022-08-19T09:27:43.702Z,-78
2022-08-19T09:32:46.622Z,-79
2022-08-19T09:37:50.020Z,-82
2022-08-19T09:43:09.969Z,-79
2022-08-19T09:48:18.921Z,-80
2022-08-19T09:53:25.501Z,-85
2022-08-19T09:58:28.933Z,-83
2022-08-19T10:03:32.556Z,-84
2022-08-19T10:08:37.442Z,-84
2022-08-19T10:13:39.722Z,-70
2022-08-19T10:18:45.058Z,-84
2022-08-19T10:23:53.520Z,-84
2022-08-19T10:28:56.344Z,-78
2022-08-19T10:34:00.433Z,-71
2022-08-19T10:39:09.744Z,-70
2022-08-19T10:44:13.833Z,-83
2022-08-19T10:49:16.221Z,-71
2022-08-19T10:54:31.048Z,-78
2022-08-19T10:59:36.511Z,-72
2022-08-19T11:04:40.225Z,-69
2022-08-19T11:09:43.930Z,-75
2022-08-19T11:14:46.017Z,-71
2022-08-19T11:19:50.047Z,-80
2022-08-19T11:24:52.623Z,-80
2022-08-19T11:29:55.233Z,-87
2022-08-19T11:34:57.239Z,-77
2022-08-19T11:39:59.636Z,-84
2022-08-19T11:45:04.065Z,-76
2022-08-19T11:50:06.948Z,-76
2022-08-19T11:55:09.570Z,-80
2022-08-19T12:00:13.940Z,-79
2022-08-19T12:05:16.089Z,-82
2022-08-19T12:10:18.953Z,-80
2022-08-19T12:15:22.344Z,-81
2022-08-19T12:20:25.875Z,-80
2022-08-19T12:25:28.759Z,-79
2022-08-19T12:30:33.547Z,-82
2022-08-19T12:35:35.661Z,-84
2022-08-19T12:40:37.953Z,-86
2022-08-19T12:45:40.380Z,-79
2022-08-19T12:50:48.487Z,-75
2022-08-19T12:55:59.237Z,-74
2022-08-19T13:01:07.565Z,-75
2022-08-19T13:06:12.165Z,-82
2022-08-19T13:11:18.657Z,-88
2022-08-19T13:16:27.799Z,-83
2022-08-19T13:21:31.287Z,-81
2022-08-19T13:26:37.135Z,-87
2022-08-19T13:32:00.112Z,-84
2022-08-19T13:37:04.399Z,-83
2022-08-19T13:42:08.253Z,-81
2022-08-19T13:47:13.628Z,-84
2022-08-19T13:52:15.637Z,-84
2022-08-19T13:57:17.699Z,-84
2022-08-19T14:02:20.116Z,-82
2022-08-19T14:07:24.652Z,-83
2022-08-19T14:12:28.428Z,-83
2022-08-19T14:17:31.214Z,-83
2022-08-19T14:22:33.515Z,-82
2022-08-19T14:27:36.222Z,-83
2022-08-19T14:32:38.376Z,-82
2022-08-19T14:37:45.290Z,-82
2022-08-19T14:42:48.353Z,-82
2022-08-19T14:47:50.623Z,-84
2022-08-19T14:53:00.561Z,-84
2022-08-19T14:58:02.779Z,-84
2022-08-19T15:03:07.673Z,-84
2022-08-19T15:08:09.811Z,-85
2022-08-19T15:13:11.788Z,-88
2022-08-19T15:18:13.975Z,-89
2022-08-19T15:23:16.788Z,-79
2022-08-19T15:28:18.884Z,-76
2022-08-19T15:33:21.244Z,-77
2022-08-19T15:38:23.768Z,-78
2022-08-19T15:43:25.870Z,-78
2022-08-19T15:48:28.121Z,-78
2022-08-19T15:53:29.977Z,-78
2022-08-19T15:58:50.377Z,-78
2022-08-19T16:04:14.701Z,-79
2022-08-19T16:09:24.936Z,-78
2022-08-19T16:14:30.137Z,-83
2022-08-19T16:19:33.309Z,-82
2022-08-19T16:24:38.307Z,-78
2022-08-19T16:29:41.084Z,-74
2022-08-19T16:34:43.915Z,-75
2022-08-19T16:39:45.995Z,-77
2022-08-19T16:44:47.958Z,-80
2022-08-19T16:49:54.368Z,-75
2022-08-19T16:54:57.475Z,-78
2022-08-19T16:59:59.605Z,-79
2022-08-19T17:05:02.027Z,-73
2022-08-19T17:10:05.263Z,-84
2022-08-19T17:15:11.169Z,-79
2022-08-19T17:20:13.434Z,-72
2022-08-19T17:25:15.844Z,-74
2022-08-19T17:30:19.516Z,-75
2022-08-19T17:35:24.179Z,-88
2022-08-19T17:40:26.821Z,-77
2022-08-19T17:45:33.389Z,-73
2022-08-19T17:50:36.616Z,-83
2022-08-19T17:55:38.875Z,-74
2022-08-19T18:00:53.724Z,-76
2022-08-19T18:05:59.644Z,-76
2022-08-19T18:11:01.774Z,-75
2022-08-19T18:16:07.748Z,-76
2022-08-19T18:21:10.691Z,-75
2022-08-19T18:26:13.128Z,-79
2022-08-19T18:31:15.090Z,-73
2022-08-19T18:36:27.917Z,-74
2022-08-19T18:41:57.437Z,-76
2022-08-19T18:47:37.901Z,-74
2022-08-19T18:52:40.216Z,-72
2022-08-19T18:57:42.168Z,-70
2022-08-19T19:02:45.362Z,-70
2022-08-19T19:07:48.653Z,-74
2022-08-19T19:12:50.914Z,-75
2022-08-19T19:17:52.846Z,-78
2022-08-19T19:22:56.073Z,-74
2022-08-19T19:28:00.704Z,-77
2022-08-19T19:33:03.342Z,-75
2022-08-19T19:38:05.378Z,-75
2022-08-19T19:43:08.279Z,-73
2022-08-19T19:48:13.710Z,-74
2022-08-19T19:53:15.954Z,-76
2022-08-19T19:58:18.678Z,-68
2022-08-19T20:03:25.694Z,-68
2022-08-19T20:08:46.701Z,-70
2022-08-19T20:13:48.664Z,-76
2022-08-19T20:18:50.792Z,-80
2022-08-19T20:24:09.226Z,-76
2022-08-19T20:29:37.915Z,-71
2022-08-19T20:34:34.253Z,-71
2022-08-19T20:39:36.494Z,-75
2022-08-19T20:44:38.751Z,-75
2022-08-19T20:49:40.989Z,-70
2022-08-19T20:54:43.150Z,-75
2022-08-19T20:59:45.212Z,-72
2022-08-19T21:04:48.310Z,-69
2022-08-19T21:09:52.135Z,-69
2022-08-19T21:14:54.432Z,-68
2022-08-19T21:19:56.425Z,-70
2022-08-19T21:24:58.406Z,-71
2022-08-19T21:30:00.541Z,-70
2022-08-19T21:35:02.766Z,-69
2022-08-19T21:40:06.357Z,-71
2022-08-19T21:45:08.930Z,-69
2022-08-19T21:50:11.976Z,-70
2022-08-19T21:55:15.572Z,-70
2022-08-19T22:00:20.963Z,-68
2022-08-19T22:05:24.621Z,-69
2022-08-19T22:10:33.794Z,-69
2022-08-19T22:15:35.789Z,-71
2022-08-19T22:20:37.820Z,-70
2022-08-19T22:25:44.749Z,-69
2022-08-19T22:30:51.120Z,-69
2022-08-19T22:35:54.017Z,-71
2022-08-19T22:40:56.535Z,-71
2022-08-19T22:45:59.795Z,-72
2022-08-19T22:51:20.109Z,-71
2022-08-19T22:56:22.544Z,-71
2022-08-19T23:01:29.874Z,-71
2022-08-19T23:06:33.726Z,-71
2022-08-19T23:11:42.128Z,-72
2022-08-19T23:16:50.536Z,-71
2022-08-19T23:21:53.583Z,-71
2022-08-19T23:27:14.014Z,-72
2022-08-19T23:32:17.369Z,-71
2022-08-19T23:37:19.404Z,-71
2022-08-19T23:42:21.455Z,-71
2022-08-19T23:47:23.758Z,-71
2022-08-19T23:52:28.409Z,-71
2022-08-19T23:57:30.669Z,-70
